sensor_id;sensor_type;location;lat;lon;timestamp;pressure;altitude;pressure_sealevel;temperature;humidity
4012;BME280;2020;48.682;9.024;2022-12-20T00:01:14;96961.94;;;3.40;90.09
4012;BME280;2020;48.682;9.024;2022-12-20T00:03:40;96968.88;;;3.25;89.40
4012;BME280;2020;48.682;9.024;2022-12-20T00:06:06;96959.56;;;3.22;89.98
4012;BME280;2020;48.682;9.024;2022-12-20T00:08:31;96956.06;;;3.11;90.77
4012;BME280;2020;48.682;9.024;2022-12-20T00:11:00;96947.84;;;3.18;90.71
4012;BME280;2020;48.682;9.024;2022-12-20T00:13:26;96945.31;;;3.04;90.40
4012;BME280;2020;48.682;9.024;2022-12-20T00:16:06;96937.25;;;2.96;91.48
4012;BME280;2020;48.682;9.024;2022-12-20T00:18:32;96932.31;;;2.92;91.52
4012;BME280;2020;48.682;9.024;2022-12-20T00:20:59;96934.16;;;2.90;92.02
4012;BME280;2020;48.682;9.024;2022-12-20T00:23:24;96928.56;;;2.84;91.79
4012;BME280;2020;48.682;9.024;2022-12-20T00:25:49;96934.91;;;2.78;92.63
4012;BME280;2020;48.682;9.024;2022-12-20T00:28:15;96930.16;;;2.72;92.75
4012;BME280;2020;48.682;9.024;2022-12-20T00:30:40;96935.84;;;2.62;93.43
4012;BME280;2020;48.682;9.024;2022-12-20T00:33:05;96935.69;;;2.51;93.44
4012;BME280;2020;48.682;9.024;2022-12-20T00:35:30;96924.50;;;2.52;94.32
4012;BME280;2020;48.682;9.024;2022-12-20T00:37:56;96928.16;;;2.48;94.63
4012;BME280;2020;48.682;9.024;2022-12-20T00:40:21;96929.63;;;2.52;94.57
4012;BME280;2020;48.682;9.024;2022-12-20T00:42:46;96931.09;;;2.56;95.19
4012;BME280;2020;48.682;9.024;2022-12-20T00:45:11;96918.13;;;2.58;94.24
4012;BME280;2020;48.682;9.024;2022-12-20T00:47:37;96910.63;;;2.69;94.16
4012;BME280;2020;48.682;9.024;2022-12-20T00:50:02;96912.88;;;2.74;94.63
4012;BME280;2020;48.682;9.024;2022-12-20T00:52:27;96914.34;;;2.78;94.34
4012;BME280;2020;48.682;9.024;2022-12-20T00:54:53;96918.75;;;2.76;93.99
4012;BME280;2020;48.682;9.024;2022-12-20T00:57:18;96903.13;;;2.79;93.89
4012;BME280;2020;48.682;9.024;2022-12-20T00:59:43;96909.00;;;2.81;94.13
4012;BME280;2020;48.682;9.024;2022-12-20T01:02:09;96923.47;;;2.97;93.46
4012;BME280;2020;48.682;9.024;2022-12-20T01:04:34;96922.88;;;3.06;92.22
4012;BME280;2020;48.682;9.024;2022-12-20T01:06:59;96932.38;;;3.05;92.51
4012;BME280;2020;48.682;9.024;2022-12-20T01:09:24;96936.44;;;3.22;92.38
4012;BME280;2020;48.682;9.024;2022-12-20T01:11:50;96938.06;;;3.24;92.07
4012;BME280;2020;48.682;9.024;2022-12-20T01:14:16;96928.50;;;3.26;92.10
4012;BME280;2020;48.682;9.024;2022-12-20T01:16:43;96927.75;;;3.38;91.05
4012;BME280;2020;48.682;9.024;2022-12-20T01:19:10;96923.13;;;3.43;90.64
4012;BME280;2020;48.682;9.024;2022-12-20T01:21:37;96920.56;;;3.43;90.53
4012;BME280;2020;48.682;9.024;2022-12-20T01:24:08;96926.19;;;3.35;90.58
4012;BME280;2020;48.682;9.024;2022-12-20T01:26:33;96924.81;;;3.30;91.05
4012;BME280;2020;48.682;9.024;2022-12-20T01:28:59;96934.28;;;3.29;91.42
4012;BME280;2020;48.682;9.024;2022-12-20T01:31:25;96927.59;;;3.27;91.67
4012;BME280;2020;48.682;9.024;2022-12-20T01:33:51;96912.88;;;3.29;91.86
4012;BME280;2020;48.682;9.024;2022-12-20T01:36:20;96925.56;;;3.32;91.83
4012;BME280;2020;48.682;9.024;2022-12-20T01:38:45;96926.09;;;3.37;91.37
4012;BME280;2020;48.682;9.024;2022-12-20T01:41:19;96931.03;;;3.40;91.71
4012;BME280;2020;48.682;9.024;2022-12-20T01:43:51;96930.84;;;3.43;90.58
4012;BME280;2020;48.682;9.024;2022-12-20T01:46:18;96947.75;;;3.47;90.60
4012;BME280;2020;48.682;9.024;2022-12-20T01:48:49;96925.09;;;3.53;90.20
4012;BME280;2020;48.682;9.024;2022-12-20T01:51:17;96903.88;;;3.36;90.71
4012;BME280;2020;48.682;9.024;2022-12-20T01:53:43;96919.66;;;3.30;91.53
4012;BME280;2020;48.682;9.024;2022-12-20T01:56:09;96908.28;;;3.34;92.17
4012;BME280;2020;48.682;9.024;2022-12-20T01:58:37;96901.41;;;3.47;90.85
4012;BME280;2020;48.682;9.024;2022-12-20T02:01:03;96904.06;;;3.33;91.11
4012;BME280;2020;48.682;9.024;2022-12-20T02:03:30;96902.22;;;3.07;91.79
4012;BME280;2020;48.682;9.024;2022-12-20T02:05:56;96906.94;;;3.01;92.60
4012;BME280;2020;48.682;9.024;2022-12-20T02:08:21;96912.38;;;2.96;93.21
4012;BME280;2020;48.682;9.024;2022-12-20T02:13:53;96886.59;;;2.83;93.98
4012;BME280;2020;48.682;9.024;2022-12-20T02:16:26;96890.19;;;2.81;94.67
4012;BME280;2020;48.682;9.024;2022-12-20T02:19:07;96895.00;;;2.72;94.63
4012;BME280;2020;48.682;9.024;2022-12-20T02:21:44;96891.06;;;2.67;94.69
4012;BME280;2020;48.682;9.024;2022-12-20T02:27:31;96880.31;;;2.60;95.55
4012;BME280;2020;48.682;9.024;2022-12-20T02:30:14;96895.13;;;2.56;95.25
4012;BME280;2020;48.682;9.024;2022-12-20T02:32:49;96890.44;;;2.48;95.79
4012;BME280;2020;48.682;9.024;2022-12-20T02:35:23;96884.28;;;2.51;96.56
4012;BME280;2020;48.682;9.024;2022-12-20T02:37:54;96886.88;;;2.51;96.56
4012;BME280;2020;48.682;9.024;2022-12-20T02:40:23;96895.31;;;2.53;96.43
4012;BME280;2020;48.682;9.024;2022-12-20T02:42:53;96892.81;;;2.66;95.93
4012;BME280;2020;48.682;9.024;2022-12-20T02:45:21;96885.34;;;2.76;95.11
4012;BME280;2020;48.682;9.024;2022-12-20T02:48:01;96886.97;;;2.77;94.80
4012;BME280;2020;48.682;9.024;2022-12-20T02:50:39;96877.09;;;2.71;95.40
4012;BME280;2020;48.682;9.024;2022-12-20T02:53:07;96875.25;;;2.73;94.75
4012;BME280;2020;48.682;9.024;2022-12-20T02:55:45;96870.50;;;2.67;95.00
4012;BME280;2020;48.682;9.024;2022-12-20T03:01:02;96868.41;;;2.86;94.68
4012;BME280;2020;48.682;9.024;2022-12-20T03:03:34;96854.56;;;3.02;93.33
4012;BME280;2020;48.682;9.024;2022-12-20T03:06:00;96846.84;;;3.02;93.43
4012;BME280;2020;48.682;9.024;2022-12-20T03:08:25;96873.16;;;2.92;93.74
4012;BME280;2020;48.682;9.024;2022-12-20T03:10:52;96881.31;;;2.72;94.21
4012;BME280;2020;48.682;9.024;2022-12-20T03:13:18;96869.94;;;2.61;93.90
4012;BME280;2020;48.682;9.024;2022-12-20T03:15:44;96864.28;;;2.56;94.22
4012;BME280;2020;48.682;9.024;2022-12-20T03:18:10;96856.94;;;2.50;94.90
4012;BME280;2020;48.682;9.024;2022-12-20T03:20:35;96850.88;;;2.51;95.00
4012;BME280;2020;48.682;9.024;2022-12-20T03:23:01;96854.38;;;2.50;95.83
4012;BME280;2020;48.682;9.024;2022-12-20T03:25:26;96842.06;;;2.55;95.22
4012;BME280;2020;48.682;9.024;2022-12-20T03:27:51;96821.13;;;2.61;94.76
4012;BME280;2020;48.682;9.024;2022-12-20T03:30:17;96831.00;;;2.68;95.17
4012;BME280;2020;48.682;9.024;2022-12-20T03:32:42;96821.50;;;2.55;95.16
4012;BME280;2020;48.682;9.024;2022-12-20T03:35:08;96840.66;;;2.37;95.30
4012;BME280;2020;48.682;9.024;2022-12-20T03:37:33;96851.19;;;2.32;96.28
4012;BME280;2020;48.682;9.024;2022-12-20T03:39:58;96856.78;;;2.39;96.88
4012;BME280;2020;48.682;9.024;2022-12-20T03:42:24;96860.81;;;2.43;95.89
4012;BME280;2020;48.682;9.024;2022-12-20T03:44:49;96854.56;;;2.47;96.17
4012;BME280;2020;48.682;9.024;2022-12-20T03:47:14;96855.09;;;2.52;96.33
4012;BME280;2020;48.682;9.024;2022-12-20T03:49:40;96842.69;;;2.59;95.73
4012;BME280;2020;48.682;9.024;2022-12-20T03:52:05;96837.13;;;2.52;95.63
4012;BME280;2020;48.682;9.024;2022-12-20T03:54:31;96840.81;;;2.48;96.23
4012;BME280;2020;48.682;9.024;2022-12-20T03:56:56;96834.41;;;2.41;95.84
4012;BME280;2020;48.682;9.024;2022-12-20T03:59:22;96834.00;;;2.47;96.42
4012;BME280;2020;48.682;9.024;2022-12-20T04:01:47;96840.81;;;2.48;96.19
4012;BME280;2020;48.682;9.024;2022-12-20T04:04:14;96823.75;;;2.47;96.27
4012;BME280;2020;48.682;9.024;2022-12-20T04:06:40;96822.47;;;2.40;96.56
4012;BME280;2020;48.682;9.024;2022-12-20T04:09:05;96818.44;;;2.36;96.69
4012;BME280;2020;48.682;9.024;2022-12-20T04:11:30;96815.88;;;2.36;96.52
4012;BME280;2020;48.682;9.024;2022-12-20T04:13:56;96815.88;;;2.36;96.61
4012;BME280;2020;48.682;9.024;2022-12-20T04:16:26;96822.66;;;2.37;96.83
4012;BME280;2020;48.682;9.024;2022-12-20T04:18:52;96830.25;;;2.38;97.00
4012;BME280;2020;48.682;9.024;2022-12-20T04:21:31;96829.25;;;2.41;97.39
4012;BME280;2020;48.682;9.024;2022-12-20T04:23:58;96827.72;;;2.66;96.04
4012;BME280;2020;48.682;9.024;2022-12-20T04:26:23;96829.56;;;2.63;95.97
4012;BME280;2020;48.682;9.024;2022-12-20T04:28:48;96830.19;;;2.67;96.03
4012;BME280;2020;48.682;9.024;2022-12-20T04:31:14;96834.50;;;2.67;95.66
4012;BME280;2020;48.682;9.024;2022-12-20T04:33:39;96821.13;;;2.61;96.11
4012;BME280;2020;48.682;9.024;2022-12-20T04:36:04;96826.44;;;2.58;96.53
4012;BME280;2020;48.682;9.024;2022-12-20T04:38:30;96823.34;;;2.53;96.08
4012;BME280;2020;48.682;9.024;2022-12-20T04:40:55;96813.06;;;2.53;96.57
4012;BME280;2020;48.682;9.024;2022-12-20T04:43:22;96808.00;;;2.52;96.81
4012;BME280;2020;48.682;9.024;2022-12-20T04:45:50;96799.69;;;2.48;96.91
4012;BME280;2020;48.682;9.024;2022-12-20T04:48:16;96791.44;;;2.43;97.37
4012;BME280;2020;48.682;9.024;2022-12-20T04:50:42;96787.03;;;2.45;97.14
4012;BME280;2020;48.682;9.024;2022-12-20T04:53:09;96789.09;;;2.80;96.89
4012;BME280;2020;48.682;9.024;2022-12-20T04:55:53;96785.53;;;2.96;95.00
4012;BME280;2020;48.682;9.024;2022-12-20T04:58:19;96787.06;;;2.85;94.67
4012;BME280;2020;48.682;9.024;2022-12-20T05:00:44;96797.94;;;2.76;95.19
4012;BME280;2020;48.682;9.024;2022-12-20T05:03:09;96789.69;;;2.71;95.03
4012;BME280;2020;48.682;9.024;2022-12-20T05:05:34;96792.19;;;2.72;95.68
4012;BME280;2020;48.682;9.024;2022-12-20T05:08:00;96791.13;;;2.75;95.42
4012;BME280;2020;48.682;9.024;2022-12-20T05:10:26;96783.75;;;2.83;95.56
4012;BME280;2020;48.682;9.024;2022-12-20T05:12:51;96784.25;;;3.16;93.90
4012;BME280;2020;48.682;9.024;2022-12-20T05:15:16;96783.19;;;3.18;93.48
4012;BME280;2020;48.682;9.024;2022-12-20T05:17:42;96785.28;;;3.39;92.26
4012;BME280;2020;48.682;9.024;2022-12-20T05:20:07;96776.13;;;3.22;92.39
4012;BME280;2020;48.682;9.024;2022-12-20T05:22:33;96774.75;;;3.16;93.01
4012;BME280;2020;48.682;9.024;2022-12-20T05:25:16;96771.88;;;3.08;93.49
4012;BME280;2020;48.682;9.024;2022-12-20T05:28:01;96774.84;;;3.02;93.86
4012;BME280;2020;48.682;9.024;2022-12-20T05:30:26;96775.03;;;2.99;94.11
4012;BME280;2020;48.682;9.024;2022-12-20T05:32:52;96777.81;;;2.96;94.74
4012;BME280;2020;48.682;9.024;2022-12-20T05:35:18;96774.75;;;3.03;94.51
4012;BME280;2020;48.682;9.024;2022-12-20T05:37:43;96766.13;;;3.04;94.30
4012;BME280;2020;48.682;9.024;2022-12-20T05:40:10;96765.91;;;3.07;94.20
4012;BME280;2020;48.682;9.024;2022-12-20T05:42:35;96752.94;;;3.09;94.46
4012;BME280;2020;48.682;9.024;2022-12-20T05:45:00;96759.94;;;3.07;94.54
4012;BME280;2020;48.682;9.024;2022-12-20T05:47:27;96758.09;;;3.09;94.10
4012;BME280;2020;48.682;9.024;2022-12-20T05:49:52;96752.00;;;3.10;94.22
4012;BME280;2020;48.682;9.024;2022-12-20T05:52:17;96752.94;;;3.09;94.26
4012;BME280;2020;48.682;9.024;2022-12-20T05:54:43;96747.59;;;3.12;93.81
4012;BME280;2020;48.682;9.024;2022-12-20T05:57:08;96738.13;;;3.13;93.99
4012;BME280;2020;48.682;9.024;2022-12-20T05:59:33;96738.53;;;3.19;93.31
4012;BME280;2020;48.682;9.024;2022-12-20T06:01:59;96731.75;;;3.18;93.57
4012;BME280;2020;48.682;9.024;2022-12-20T06:04:24;96737.91;;;3.29;93.44
4012;BME280;2020;48.682;9.024;2022-12-20T06:06:49;96741.81;;;3.21;93.56
4012;BME280;2020;48.682;9.024;2022-12-20T06:09:15;96747.19;;;3.18;93.08
4012;BME280;2020;48.682;9.024;2022-12-20T06:11:40;96744.50;;;3.46;92.99
4012;BME280;2020;48.682;9.024;2022-12-20T06:14:05;96738.03;;;3.40;92.76
4012;BME280;2020;48.682;9.024;2022-12-20T06:16:30;96733.41;;;3.45;92.06
4012;BME280;2020;48.682;9.024;2022-12-20T06:18:56;96740.19;;;3.46;91.80
4012;BME280;2020;48.682;9.024;2022-12-20T06:21:21;96746.47;;;3.42;92.07
4012;BME280;2020;48.682;9.024;2022-12-20T06:23:47;96753.78;;;3.48;92.46
4012;BME280;2020;48.682;9.024;2022-12-20T06:26:12;96753.78;;;3.48;91.98
4012;BME280;2020;48.682;9.024;2022-12-20T06:28:38;96751.13;;;3.37;92.87
4012;BME280;2020;48.682;9.024;2022-12-20T06:31:10;96754.63;;;3.36;92.64
4012;BME280;2020;48.682;9.024;2022-12-20T06:33:36;96752.25;;;3.33;93.09
4012;BME280;2020;48.682;9.024;2022-12-20T06:36:02;96751.31;;;3.34;93.23
4012;BME280;2020;48.682;9.024;2022-12-20T06:38:27;96761.63;;;3.34;93.92
4012;BME280;2020;48.682;9.024;2022-12-20T06:40:53;96761.63;;;3.34;93.29
4012;BME280;2020;48.682;9.024;2022-12-20T06:43:18;96754.19;;;3.29;93.48
4012;BME280;2020;48.682;9.024;2022-12-20T06:45:44;96756.34;;;3.22;93.75
4012;BME280;2020;48.682;9.024;2022-12-20T06:48:10;96753.75;;;3.22;94.61
4012;BME280;2020;48.682;9.024;2022-12-20T06:50:38;96755.63;;;3.20;94.16
4012;BME280;2020;48.682;9.024;2022-12-20T06:53:04;96751.00;;;3.26;93.83
4012;BME280;2020;48.682;9.024;2022-12-20T06:55:29;96751.72;;;3.28;93.88
4012;BME280;2020;48.682;9.024;2022-12-20T06:57:54;96747.91;;;3.20;94.04
4012;BME280;2020;48.682;9.024;2022-12-20T07:00:21;96752.97;;;3.22;93.99
4012;BME280;2020;48.682;9.024;2022-12-20T07:02:46;96745.25;;;3.35;93.78
4012;BME280;2020;48.682;9.024;2022-12-20T07:05:11;96740.09;;;3.35;93.72
4012;BME280;2020;48.682;9.024;2022-12-20T07:07:37;96733.59;;;3.55;92.51
4012;BME280;2020;48.682;9.024;2022-12-20T07:10:02;96744.72;;;3.56;92.05
4012;BME280;2020;48.682;9.024;2022-12-20T07:12:27;96743.03;;;3.68;91.65
4012;BME280;2020;48.682;9.024;2022-12-20T07:14:53;96752.53;;;3.67;92.14
4012;BME280;2020;48.682;9.024;2022-12-20T07:17:19;96753.34;;;3.80;90.25
4012;BME280;2020;48.682;9.024;2022-12-20T07:19:44;96749.81;;;3.82;90.41
4012;BME280;2020;48.682;9.024;2022-12-20T07:22:09;96745.31;;;3.72;91.32
4012;BME280;2020;48.682;9.024;2022-12-20T07:24:34;96738.38;;;3.86;90.67
4012;BME280;2020;48.682;9.024;2022-12-20T07:27:00;96739.47;;;4.07;89.72
4012;BME280;2020;48.682;9.024;2022-12-20T07:29:26;96746.50;;;3.92;90.67
4012;BME280;2020;48.682;9.024;2022-12-20T07:31:52;96744.25;;;3.88;90.05
4012;BME280;2020;48.682;9.024;2022-12-20T07:34:17;96750.38;;;4.11;89.55
4012;BME280;2020;48.682;9.024;2022-12-20T07:36:43;96750.09;;;4.27;88.29
4012;BME280;2020;48.682;9.024;2022-12-20T07:39:08;96750.38;;;4.35;87.60
4012;BME280;2020;48.682;9.024;2022-12-20T07:41:33;96755.69;;;4.21;88.26
4012;BME280;2020;48.682;9.024;2022-12-20T07:43:59;96755.69;;;4.21;88.44
4012;BME280;2020;48.682;9.024;2022-12-20T07:46:24;96748.91;;;4.20;88.78
4012;BME280;2020;48.682;9.024;2022-12-20T07:48:50;96746.47;;;4.05;89.23
4012;BME280;2020;48.682;9.024;2022-12-20T07:51:34;96752.47;;;4.06;89.26
4012;BME280;2020;48.682;9.024;2022-12-20T07:54:12;96744.41;;;4.10;89.31
4012;BME280;2020;48.682;9.024;2022-12-20T07:56:42;96747.69;;;4.13;89.70
4012;BME280;2020;48.682;9.024;2022-12-20T07:59:11;96748.53;;;4.13;88.96
4012;BME280;2020;48.682;9.024;2022-12-20T08:01:39;96748.13;;;4.06;89.59
4012;BME280;2020;48.682;9.024;2022-12-20T08:04:12;96753.56;;;4.15;88.71
4012;BME280;2020;48.682;9.024;2022-12-20T08:06:39;96764.50;;;4.05;89.72
4012;BME280;2020;48.682;9.024;2022-12-20T08:09:07;96766.28;;;4.05;89.42
4012;BME280;2020;48.682;9.024;2022-12-20T08:11:35;96764.78;;;4.14;89.94
4012;BME280;2020;48.682;9.024;2022-12-20T08:14:01;96751.69;;;4.17;89.01
4012;BME280;2020;48.682;9.024;2022-12-20T08:16:27;96751.41;;;4.08;89.25
4012;BME280;2020;48.682;9.024;2022-12-20T08:18:52;96760.28;;;4.04;89.63
4012;BME280;2020;48.682;9.024;2022-12-20T08:21:17;96751.41;;;4.08;89.82
4012;BME280;2020;48.682;9.024;2022-12-20T08:23:43;96745.22;;;4.11;89.42
4012;BME280;2020;48.682;9.024;2022-12-20T08:26:08;96748.91;;;4.20;88.70
4012;BME280;2020;48.682;9.024;2022-12-20T08:28:33;96730.53;;;4.24;88.49
4012;BME280;2020;48.682;9.024;2022-12-20T08:31:00;96721.69;;;4.16;88.81
4012;BME280;2020;48.682;9.024;2022-12-20T08:33:26;96724.69;;;4.22;89.13
4012;BME280;2020;48.682;9.024;2022-12-20T08:36:11;96725.00;;;4.18;89.94
4012;BME280;2020;48.682;9.024;2022-12-20T08:38:37;96718.38;;;4.27;88.52
4012;BME280;2020;48.682;9.024;2022-12-20T08:41:05;96710.28;;;4.31;88.15
4012;BME280;2020;48.682;9.024;2022-12-20T08:43:32;96704.47;;;4.41;88.38
4012;BME280;2020;48.682;9.024;2022-12-20T08:45:57;96701.81;;;4.42;88.20
4012;BME280;2020;48.682;9.024;2022-12-20T08:48:22;96702.50;;;4.68;86.45
4012;BME280;2020;48.682;9.024;2022-12-20T08:50:56;96715.94;;;4.61;86.73
4012;BME280;2020;48.682;9.024;2022-12-20T08:53:22;96711.59;;;4.61;88.00
4012;BME280;2020;48.682;9.024;2022-12-20T08:55:47;96713.97;;;4.64;87.87
4012;BME280;2020;48.682;9.024;2022-12-20T08:58:13;96712.97;;;4.54;87.54
4012;BME280;2020;48.682;9.024;2022-12-20T09:00:39;96714.22;;;4.73;85.84
4012;BME280;2020;48.682;9.024;2022-12-20T09:03:04;96719.84;;;4.66;86.89
4012;BME280;2020;48.682;9.024;2022-12-20T09:05:31;96707.25;;;4.62;88.02
4012;BME280;2020;48.682;9.024;2022-12-20T09:07:56;96709.59;;;4.53;88.88
4012;BME280;2020;48.682;9.024;2022-12-20T09:10:22;96694.69;;;4.57;87.91
4012;BME280;2020;48.682;9.024;2022-12-20T09:12:47;96694.69;;;4.57;87.86
4012;BME280;2020;48.682;9.024;2022-12-20T09:15:12;96697.34;;;4.68;86.99
4012;BME280;2020;48.682;9.024;2022-12-20T09:17:38;96702.28;;;4.72;87.25
4012;BME280;2020;48.682;9.024;2022-12-20T09:20:04;96700.34;;;4.62;87.23
4012;BME280;2020;48.682;9.024;2022-12-20T09:22:29;96702.91;;;4.62;87.19
4012;BME280;2020;48.682;9.024;2022-12-20T09:24:54;96706.66;;;4.58;87.75
4012;BME280;2020;48.682;9.024;2022-12-20T09:27:20;96716.75;;;4.61;87.35
4012;BME280;2020;48.682;9.024;2022-12-20T09:29:46;96711.59;;;4.61;88.14
4012;BME280;2020;48.682;9.024;2022-12-20T09:32:11;96702.28;;;4.72;86.38
4012;BME280;2020;48.682;9.024;2022-12-20T09:34:37;96708.00;;;4.75;87.34
4012;BME280;2020;48.682;9.024;2022-12-20T09:37:03;96710.03;;;4.83;86.31
4012;BME280;2020;48.682;9.024;2022-12-20T09:39:28;96706.28;;;4.87;86.42
4012;BME280;2020;48.682;9.024;2022-12-20T09:41:53;96696.00;;;4.98;85.93
4012;BME280;2020;48.682;9.024;2022-12-20T09:44:24;96703.03;;;5.08;85.59
4012;BME280;2020;48.682;9.024;2022-12-20T09:46:57;96695.56;;;5.16;84.88
4012;BME280;2020;48.682;9.024;2022-12-20T09:49:27;96689.69;;;5.25;83.79
4012;BME280;2020;48.682;9.024;2022-12-20T09:54:45;96678.19;;;5.41;84.08
4012;BME280;2020;48.682;9.024;2022-12-20T09:57:29;96674.44;;;5.45;84.02
4012;BME280;2020;48.682;9.024;2022-12-20T09:59:56;96676.56;;;5.40;84.11
4012;BME280;2020;48.682;9.024;2022-12-20T10:02:25;96669.75;;;5.39;84.21
4012;BME280;2020;48.682;9.024;2022-12-20T10:04:51;96669.50;;;5.42;84.35
4012;BME280;2020;48.682;9.024;2022-12-20T10:07:38;96670.34;;;5.43;83.99
4012;BME280;2020;48.682;9.024;2022-12-20T10:13:16;96671.16;;;5.43;83.91
4012;BME280;2020;48.682;9.024;2022-12-20T10:15:51;96659.41;;;5.62;82.71
4012;BME280;2020;48.682;9.024;2022-12-20T10:18:34;96654.22;;;5.62;82.65
4012;BME280;2020;48.682;9.024;2022-12-20T10:22:01;96650.25;;;5.57;82.37
4012;BME280;2020;48.682;9.024;2022-12-20T10:24:09;96637.56;;;5.54;82.73
4012;BME280;2020;48.682;9.024;2022-12-20T10:26:36;96642.03;;;5.64;81.97
4012;BME280;2020;48.682;9.024;2022-12-20T10:29:01;96641.56;;;5.59;82.53
4012;BME280;2020;48.682;9.024;2022-12-20T10:31:26;96638.50;;;5.53;82.78
4012;BME280;2020;48.682;9.024;2022-12-20T10:33:52;96637.34;;;5.57;82.84
4012;BME280;2020;48.682;9.024;2022-12-20T10:36:26;96635.94;;;5.53;83.38
4012;BME280;2020;48.682;9.024;2022-12-20T10:38:53;96639.69;;;5.49;83.95
4012;BME280;2020;48.682;9.024;2022-12-20T10:41:22;96644.38;;;5.55;83.13
4012;BME280;2020;48.682;9.024;2022-12-20T10:44:01;96642.25;;;5.61;83.08
4012;BME280;2020;48.682;9.024;2022-12-20T10:46:39;96632.63;;;5.63;83.65
4012;BME280;2020;48.682;9.024;2022-12-20T10:51:54;96627.13;;;5.67;82.05
4012;BME280;2020;48.682;9.024;2022-12-20T10:54:43;96620.63;;;5.73;81.33
4012;BME280;2020;48.682;9.024;2022-12-20T10:59:43;96617.59;;;5.68;82.58
4012;BME280;2020;48.682;9.024;2022-12-20T11:02:39;96608.91;;;5.69;82.55
4012;BME280;2020;48.682;9.024;2022-12-20T11:07:33;96604.91;;;5.76;82.63
4012;BME280;2020;48.682;9.024;2022-12-20T11:10:03;96595.16;;;5.80;81.23
4012;BME280;2020;48.682;9.024;2022-12-20T11:12:52;96592.69;;;5.78;82.19
4012;BME280;2020;48.682;9.024;2022-12-20T11:15:23;96588.34;;;5.79;82.14
4012;BME280;2020;48.682;9.024;2022-12-20T11:17:50;96578.13;;;5.77;82.36
4012;BME280;2020;48.682;9.024;2022-12-20T11:23:31;96576.31;;;6.00;80.70
4012;BME280;2020;48.682;9.024;2022-12-20T11:26:34;96569.13;;;5.93;81.36
4012;BME280;2020;48.682;9.024;2022-12-20T11:29:30;96567.75;;;5.89;83.03
4012;BME280;2020;48.682;9.024;2022-12-20T11:37:22;96555.28;;;5.94;82.50
4012;BME280;2020;48.682;9.024;2022-12-20T11:42:57;96549.66;;;6.00;82.38
4012;BME280;2020;48.682;9.024;2022-12-20T11:48:54;96547.28;;;6.08;81.45
4012;BME280;2020;48.682;9.024;2022-12-20T11:51:23;96537.25;;;6.15;80.19
4012;BME280;2020;48.682;9.024;2022-12-20T11:54:01;96539.97;;;6.13;80.76
4012;BME280;2020;48.682;9.024;2022-12-20T11:56:38;96535.00;;;6.22;80.36
4012;BME280;2020;48.682;9.024;2022-12-20T12:02:04;96529.69;;;6.23;79.85
4012;BME280;2020;48.682;9.024;2022-12-20T12:04:39;96536.50;;;6.24;80.86
4012;BME280;2020;48.682;9.024;2022-12-20T12:07:12;96524.22;;;6.17;80.95
4012;BME280;2020;48.682;9.024;2022-12-20T12:09:48;96521.63;;;6.17;80.04
4012;BME280;2020;48.682;9.024;2022-12-20T12:12:42;96516.47;;;6.17;79.48
4012;BME280;2020;48.682;9.024;2022-12-20T12:17:55;96520.44;;;6.21;80.39
4012;BME280;2020;48.682;9.024;2022-12-20T12:20:48;96517.41;;;6.16;80.15
4012;BME280;2020;48.682;9.024;2022-12-20T12:25:41;96510.97;;;6.31;78.77
4012;BME280;2020;48.682;9.024;2022-12-20T12:28:09;96510.97;;;6.31;79.19
4012;BME280;2020;48.682;9.024;2022-12-20T12:30:39;96516.13;;;6.31;78.63
4012;BME280;2020;48.682;9.024;2022-12-20T12:33:15;96511.41;;;6.36;79.01
4012;BME280;2020;48.682;9.024;2022-12-20T12:36:11;96514.25;;;6.33;80.30
4012;BME280;2020;48.682;9.024;2022-12-20T12:44:31;96504.59;;;6.35;80.22
4012;BME280;2020;48.682;9.024;2022-12-20T12:47:02;96497.72;;;6.46;77.42
4012;BME280;2020;48.682;9.024;2022-12-20T12:49:30;96489.53;;;6.40;79.23
4012;BME280;2020;48.682;9.024;2022-12-20T12:51:59;96471.53;;;6.39;78.46
4012;BME280;2020;48.682;9.024;2022-12-20T12:54:34;96485.41;;;6.38;79.48
4012;BME280;2020;48.682;9.024;2022-12-20T12:57:02;96486.41;;;6.47;78.68
4012;BME280;2020;48.682;9.024;2022-12-20T13:07:25;96465.63;;;6.58;77.79
4012;BME280;2020;48.682;9.024;2022-12-20T13:09:51;96465.13;;;6.64;76.73
4012;BME280;2020;48.682;9.024;2022-12-20T13:12:47;96476.66;;;6.60;78.20
4012;BME280;2020;48.682;9.024;2022-12-20T13:17:52;96472.03;;;6.54;78.00
4012;BME280;2020;48.682;9.024;2022-12-20T13:20:22;96464.53;;;6.51;77.68
4012;BME280;2020;48.682;9.024;2022-12-20T13:25:48;96465.03;;;6.44;78.44
4012;BME280;2020;48.682;9.024;2022-12-20T13:30:45;96472.38;;;6.39;79.61
4012;BME280;2020;48.682;9.024;2022-12-20T13:36:36;96471.78;;;6.36;79.12
4012;BME280;2020;48.682;9.024;2022-12-20T13:41:47;96465.59;;;6.48;78.57
4012;BME280;2020;48.682;9.024;2022-12-20T13:47:19;96449.81;;;6.51;77.77
4012;BME280;2020;48.682;9.024;2022-12-20T13:49:51;96441.94;;;6.53;78.18
4012;BME280;2020;48.682;9.024;2022-12-20T13:52:33;96435.13;;;6.52;78.43
4012;BME280;2020;48.682;9.024;2022-12-20T13:55:14;96439.09;;;6.56;77.54
4012;BME280;2020;48.682;9.024;2022-12-20T13:57:42;96436.13;;;7.41;75.45
4012;BME280;2020;48.682;9.024;2022-12-20T14:00:16;96430.81;;;8.19;72.78
4012;BME280;2020;48.682;9.024;2022-12-20T14:02:42;96424.72;;;8.48;70.27
4012;BME280;2020;48.682;9.024;2022-12-20T14:05:22;96428.44;;;7.98;72.38
4012;BME280;2020;48.682;9.024;2022-12-20T14:07:58;96427.41;;;7.61;72.33
4012;BME280;2020;48.682;9.024;2022-12-20T14:10:26;96427.94;;;7.36;75.63
4012;BME280;2020;48.682;9.024;2022-12-20T14:12:53;96423.41;;;7.18;75.23
4012;BME280;2020;48.682;9.024;2022-12-20T14:15:24;96423.00;;;7.03;75.79
4012;BME280;2020;48.682;9.024;2022-12-20T14:17:50;96415.38;;;6.92;77.22
4012;BME280;2020;48.682;9.024;2022-12-20T14:20:17;96417.25;;;6.80;77.56
4012;BME280;2020;48.682;9.024;2022-12-20T14:23:09;96406.34;;;6.76;77.17
4012;BME280;2020;48.682;9.024;2022-12-20T14:25:47;96410.97;;;6.72;77.63
4012;BME280;2020;48.682;9.024;2022-12-20T14:28:18;96404.41;;;6.68;78.74
4012;BME280;2020;48.682;9.024;2022-12-20T14:30:46;96402.50;;;6.70;79.25
4012;BME280;2020;48.682;9.024;2022-12-20T14:35:48;96412.88;;;6.70;78.56
4012;BME280;2020;48.682;9.024;2022-12-20T14:38:23;96425.00;;;6.70;78.11
4012;BME280;2020;48.682;9.024;2022-12-20T14:40:52;96422.66;;;6.67;78.28
4012;BME280;2020;48.682;9.024;2022-12-20T14:43:36;96424.31;;;6.68;77.63
4012;BME280;2020;48.682;9.024;2022-12-20T14:46:16;96417.19;;;6.60;78.58
4012;BME280;2020;48.682;9.024;2022-12-20T14:48:42;96418.25;;;6.48;81.59
4012;BME280;2020;48.682;9.024;2022-12-20T14:51:08;96405.31;;;6.48;82.15
4012;BME280;2020;48.682;9.024;2022-12-20T14:53:34;96397.56;;;6.48;79.57
4012;BME280;2020;48.682;9.024;2022-12-20T14:56:00;96388.00;;;6.48;79.65
4012;BME280;2020;48.682;9.024;2022-12-20T14:58:33;96399.97;;;6.39;79.56
4012;BME280;2020;48.682;9.024;2022-12-20T15:03:48;96389.13;;;6.46;78.89